MMDO/DGO METAR and TAF weather

Enter ICAO airport designator
Station Type Date Time Source
MMDO METAR 2018/12/17 15:51 UTC NOAA

MMDO 171551Z 00000KT 10SM FEW030 BKN070 BKN200 10/M04 A3036 RMK 8/538 HZY


Station Type Date Time Source
MMDO Decoded METAR 2018/12/17 15:51 UTC NOAA

Durango Airport, Mexico (MMDO) 24-08N 104-32W
Dec 17, 2018 - 10:51 AM EST / 2018.12.17 1551 UTC
Wind: Calm:0
Visibility: 10 mile(s):0
Sky conditions: mostly cloudy
Temperature: 50 F (10 C)
Dew Point: 24 F (-4 C)
Relative Humidity: 37%
Pressure (altimeter): 30.36 in. Hg (1028 hPa)
ob: MMDO 171551Z 00000KT 10SM FEW030 BKN070 BKN200 10/M04 A3036 RMK 8/538 HZY
cycle: 16

Station Type Date Time Source
MMDO TAF 2018/12/17 06:48 UTC NOAA

TAF MMDO 170441Z 1706/1806 31004KT P6SM SCT030 OVC070
FM171100 20005KT 6SM HZ SCT020 BKN070
FM171800 24008KT P6SM SCT025 BKN080
BECMG 1803/1805 08005KT


Example: see airport list